createdAt,value
2024-01-15T00:00:30.196Z,66.60
2024-01-15T00:03:04.094Z,66.60
2024-01-15T00:05:35.460Z,66.60
2024-01-15T00:08:02.482Z,66.60
2024-01-15T00:10:30.756Z,66.60
2024-01-15T00:12:57.714Z,66.60
2024-01-15T00:15:28.409Z,66.60
2024-01-15T00:18:01.325Z,66.60
2024-01-15T00:20:31.210Z,66.60
2024-01-15T00:23:06.332Z,66.60
2024-01-15T00:25:40.773Z,66.60
2024-01-15T00:28:13.560Z,66.70
2024-01-15T00:30:40.905Z,66.70
2024-01-15T00:33:13.946Z,66.80
2024-01-15T00:35:54.248Z,66.80
2024-01-15T00:38:24.743Z,66.90
2024-01-15T00:43:47.669Z,67.00
2024-01-15T00:46:14.794Z,67.10
2024-01-15T00:48:53.403Z,67.10
2024-01-15T00:51:33.043Z,67.10
2024-01-15T00:54:05.009Z,67.10
2024-01-15T00:56:35.821Z,67.10
2024-01-15T00:59:03.055Z,67.10
2024-01-15T01:01:34.276Z,67.10
2024-01-15T01:04:08.741Z,67.20
2024-01-15T01:06:38.216Z,67.20
2024-01-15T01:09:07.390Z,67.20
2024-01-15T01:11:45.120Z,67.20
2024-01-15T01:14:25.849Z,67.30
2024-01-15T01:17:01.099Z,67.30
2024-01-15T01:19:35.213Z,67.30
2024-01-15T01:22:02.345Z,67.30
2024-01-15T01:24:29.434Z,67.30
2024-01-15T01:27:00.007Z,67.40
2024-01-15T01:29:28.084Z,67.40
2024-01-15T01:32:04.620Z,67.50
2024-01-15T01:34:50.835Z,67.50
2024-01-15T01:37:18.046Z,67.50
2024-01-15T01:39:45.630Z,67.60
2024-01-15T01:42:14.523Z,67.60
2024-01-15T01:44:41.848Z,67.60
2024-01-15T01:47:09.374Z,67.60
2024-01-15T01:49:39.503Z,67.60
2024-01-15T01:52:08.519Z,67.60
2024-01-15T01:54:38.115Z,67.50
2024-01-15T01:57:07.235Z,67.60
2024-01-15T01:59:37.201Z,67.60
2024-01-15T02:02:05.375Z,67.60
2024-01-15T02:04:33.488Z,67.70
2024-01-15T02:07:01.929Z,67.70
2024-01-15T02:09:29.199Z,67.70
2024-01-15T02:11:56.349Z,67.70
2024-01-15T02:14:24.076Z,67.70
2024-01-15T02:16:51.450Z,67.70
2024-01-15T02:19:19.043Z,67.80
2024-01-15T02:21:46.555Z,67.90
2024-01-15T02:24:13.911Z,68.00
2024-01-15T02:26:41.103Z,68.00
2024-01-15T02:29:12.675Z,68.00
2024-01-15T02:31:40.656Z,68.00
2024-01-15T02:34:07.952Z,68.10
2024-01-15T02:36:35.117Z,68.20
2024-01-15T02:39:02.291Z,68.20
2024-01-15T02:41:29.297Z,68.30
2024-01-15T02:43:56.281Z,68.30
2024-01-15T02:46:23.277Z,68.30
2024-01-15T02:48:51.003Z,68.30
2024-01-15T02:51:18.070Z,68.30
2024-01-15T02:54:07.299Z,68.30
2024-01-15T02:56:40.469Z,68.30
2024-01-15T02:59:20.289Z,68.40
2024-01-15T03:01:50.489Z,68.40
2024-01-15T03:04:23.937Z,68.40
2024-01-15T03:06:50.938Z,68.40
2024-01-15T03:09:18.213Z,68.40
2024-01-15T03:11:51.608Z,68.40
2024-01-15T03:14:30.942Z,68.40
2024-01-15T03:17:01.487Z,68.40
2024-01-15T03:19:32.432Z,68.40
2024-01-15T03:22:02.178Z,68.30
2024-01-15T03:24:36.611Z,68.30
2024-01-15T03:27:13.196Z,68.40
2024-01-15T03:30:09.248Z,68.40
2024-01-15T03:32:55.972Z,68.40
2024-01-15T03:35:31.989Z,68.40
2024-01-15T03:38:02.179Z,68.40
2024-01-15T03:40:33.755Z,68.40
2024-01-15T03:43:08.007Z,68.40
2024-01-15T03:45:36.885Z,68.40
2024-01-15T03:48:04.060Z,68.30
2024-01-15T03:50:31.677Z,68.40
2024-01-15T03:52:58.664Z,68.40
2024-01-15T03:55:29.987Z,68.40
2024-01-15T03:58:08.554Z,68.40
2024-01-15T04:00:46.693Z,68.40
2024-01-15T04:03:18.792Z,68.40
2024-01-15T04:06:00.061Z,68.40
2024-01-15T04:08:34.089Z,68.30
2024-01-15T04:11:07.571Z,68.30
2024-01-15T04:13:49.672Z,68.30
2024-01-15T04:16:19.756Z,68.30
2024-01-15T04:18:59.319Z,68.30
2024-01-15T04:22:09.872Z,68.30
2024-01-15T04:24:37.740Z,68.30
2024-01-15T04:27:15.477Z,68.30
2024-01-15T04:32:36.486Z,68.30
2024-01-15T04:35:09.578Z,68.30
2024-01-15T04:37:39.345Z,68.20
2024-01-15T04:40:17.202Z,68.30
2024-01-15T04:42:54.875Z,68.30
2024-01-15T04:45:33.865Z,68.20
2024-01-15T04:48:03.214Z,68.20
2024-01-15T04:50:35.342Z,68.20
2024-01-15T04:53:09.137Z,68.10
2024-01-15T04:55:42.521Z,68.20
2024-01-15T04:58:16.812Z,68.10
2024-01-15T05:00:47.372Z,68.20
2024-01-15T05:03:14.559Z,68.10
2024-01-15T05:05:41.507Z,68.10
2024-01-15T05:08:08.486Z,68.10
2024-01-15T05:10:35.469Z,68.10
2024-01-15T05:13:02.392Z,68.10
2024-01-15T05:15:29.654Z,68.10
2024-01-15T05:17:56.598Z,68.10
2024-01-15T05:20:23.719Z,68.10
2024-01-15T05:23:04.887Z,68.10
2024-01-15T05:25:35.351Z,68.10
2024-01-15T05:28:03.508Z,68.10
2024-01-15T05:30:35.579Z,68.10
2024-01-15T05:33:12.191Z,68.10
2024-01-15T05:35:48.024Z,68.10
2024-01-15T05:38:25.740Z,68.10
2024-01-15T05:40:55.734Z,68.00
2024-01-15T05:43:41.361Z,68.00
2024-01-15T05:46:19.578Z,67.90
2024-01-15T05:51:33.978Z,67.80
2024-01-15T05:54:12.216Z,67.80
2024-01-15T05:56:45.731Z,67.80
2024-01-15T06:02:04.413Z,67.80
2024-01-15T06:04:39.166Z,67.80
2024-01-15T06:07:36.905Z,67.90
2024-01-15T06:10:05.632Z,67.90
2024-01-15T06:12:39.760Z,67.90
2024-01-15T06:15:37.594Z,67.90
2024-01-15T06:18:13.708Z,68.00
2024-01-15T06:20:53.828Z,68.00
2024-01-15T06:23:49.047Z,68.10
2024-01-15T06:26:29.211Z,68.10
2024-01-15T06:29:10.028Z,68.10
2024-01-15T06:31:53.598Z,68.10
2024-01-15T06:34:44.173Z,68.20
2024-01-15T06:37:17.007Z,68.20
2024-01-15T06:39:53.822Z,68.20
2024-01-15T06:42:29.371Z,68.10
2024-01-15T06:45:02.968Z,68.10
2024-01-15T06:47:37.169Z,68.00
2024-01-15T06:50:10.089Z,68.00
2024-01-15T06:52:43.898Z,68.00
2024-01-15T06:55:14.266Z,68.00
2024-01-15T06:57:48.138Z,68.00
2024-01-15T07:00:27.868Z,68.00
2024-01-15T07:03:04.027Z,68.00
2024-01-15T07:05:37.375Z,68.00
2024-01-15T07:08:12.924Z,68.10
2024-01-15T07:10:55.576Z,68.00
2024-01-15T07:16:11.025Z,68.10
2024-01-15T07:18:38.167Z,68.10
2024-01-15T07:21:08.664Z,68.10
2024-01-15T07:23:59.980Z,68.10
2024-01-15T07:26:37.336Z,68.10
2024-01-15T07:29:37.046Z,68.20
2024-01-15T07:32:04.595Z,68.30
2024-01-15T07:37:31.622Z,68.40
2024-01-15T07:40:13.695Z,68.30
2024-01-15T07:43:00.453Z,68.30
2024-01-15T07:45:46.321Z,68.40
2024-01-15T07:48:40.717Z,68.40
2024-01-15T07:51:20.880Z,68.40
2024-01-15T07:53:54.968Z,68.40
2024-01-15T07:56:37.734Z,68.40
2024-01-15T07:59:22.106Z,68.40
2024-01-15T08:02:04.104Z,68.40
2024-01-15T08:04:37.110Z,68.30
2024-01-15T08:07:17.050Z,68.30
2024-01-15T08:09:56.328Z,68.30
2024-01-15T08:16:02.331Z,68.30
2024-01-15T08:18:39.022Z,68.20
2024-01-15T08:21:37.702Z,68.30
2024-01-15T08:24:15.504Z,68.30
2024-01-15T08:26:56.128Z,68.30
2024-01-15T08:32:58.449Z,68.20
2024-01-15T08:35:37.811Z,68.20
2024-01-15T08:38:30.789Z,68.20
2024-01-15T08:41:16.289Z,68.20
2024-01-15T08:43:59.193Z,68.10
2024-01-15T08:46:52.957Z,68.10
2024-01-15T08:50:15.594Z,68.10
2024-01-15T08:52:47.188Z,68.00
2024-01-15T08:55:35.934Z,68.00
2024-01-15T08:58:05.156Z,68.10
2024-01-15T09:00:58.662Z,68.00
2024-01-15T09:03:42.408Z,68.00
2024-01-15T09:06:24.473Z,67.90
2024-01-15T09:09:00.416Z,67.90
2024-01-15T09:11:50.354Z,67.90
2024-01-15T09:14:38.180Z,68.00
2024-01-15T09:20:15.688Z,67.90
2024-01-15T09:22:58.058Z,67.90
2024-01-15T09:25:39.741Z,67.80
2024-01-15T09:28:11.984Z,67.80
2024-01-15T09:30:51.800Z,67.80
2024-01-15T09:34:13.220Z,67.60
2024-01-15T09:36:55.478Z,67.60
2024-01-15T09:39:31.189Z,67.40
2024-01-15T09:42:15.279Z,67.30
2024-01-15T09:45:09.106Z,67.20
2024-01-15T09:47:45.291Z,67.20
2024-01-15T09:50:14.408Z,67.10
2024-01-15T09:52:54.959Z,67.00
2024-01-15T09:55:29.300Z,66.90
2024-01-15T09:58:06.131Z,66.80
2024-01-15T10:00:38.323Z,66.60
2024-01-15T10:03:09.388Z,66.50
2024-01-15T10:05:38.896Z,66.40
2024-01-15T10:08:27.880Z,66.30
2024-01-15T10:11:17.927Z,66.20
2024-01-15T10:14:00.659Z,66.10
2024-01-15T10:16:57.676Z,66.00
2024-01-15T10:19:31.245Z,65.90
2024-01-15T10:22:04.505Z,65.90
2024-01-15T10:27:18.606Z,65.90
2024-01-15T10:29:50.440Z,65.80
2024-01-15T10:32:30.860Z,65.80
2024-01-15T10:35:03.544Z,65.80
2024-01-15T10:37:40.769Z,65.90
2024-01-15T10:40:13.971Z,65.90
2024-01-15T10:43:26.400Z,65.90
2024-01-15T10:48:57.076Z,66.00
2024-01-15T10:54:49.938Z,65.80
2024-01-15T11:04:01.960Z,65.80
2024-01-15T11:06:54.931Z,65.70
2024-01-15T11:09:25.608Z,65.70
2024-01-15T11:15:41.225Z,65.90
2024-01-15T11:20:41.071Z,65.70
2024-01-15T11:23:09.236Z,65.80
2024-01-15T11:25:39.741Z,66.00
2024-01-15T11:31:02.747Z,66.00
2024-01-15T11:34:00.688Z,66.10
2024-01-15T11:36:52.419Z,66.10
2024-01-15T11:39:28.443Z,66.10
2024-01-15T11:42:12.064Z,66.10
2024-01-15T11:44:39.904Z,66.10
2024-01-15T11:47:15.716Z,66.00
2024-01-15T11:50:13.516Z,65.90
2024-01-15T11:52:40.544Z,66.00
2024-01-15T11:55:23.480Z,66.00
2024-01-15T11:57:55.753Z,66.10
2024-01-15T12:00:24.424Z,66.10
2024-01-15T12:02:52.274Z,66.20
2024-01-15T12:05:20.568Z,66.20
2024-01-15T12:07:51.632Z,66.40
2024-01-15T12:10:20.651Z,66.50
2024-01-15T12:13:20.432Z,66.60
2024-01-15T12:15:49.358Z,66.60
2024-01-15T12:18:19.501Z,66.60
2024-01-15T12:20:52.835Z,66.60
2024-01-15T12:23:21.165Z,66.70
2024-01-15T12:25:51.213Z,66.80
2024-01-15T12:28:18.075Z,66.80
2024-01-15T12:30:50.729Z,66.90
2024-01-15T12:33:20.049Z,67.00
2024-01-15T12:35:46.958Z,67.10
2024-01-15T12:38:13.975Z,67.20
2024-01-15T12:40:40.833Z,67.30
2024-01-15T12:43:08.880Z,67.40
2024-01-15T12:45:42.639Z,67.40
2024-01-15T12:48:10.290Z,67.50
2024-01-15T12:50:37.265Z,67.60
2024-01-15T12:53:07.449Z,67.60
2024-01-15T12:55:35.696Z,67.70
2024-01-15T12:58:02.715Z,67.70
2024-01-15T13:00:30.985Z,67.80
2024-01-15T13:03:05.038Z,67.90
2024-01-15T13:05:35.255Z,67.90
2024-01-15T13:08:02.810Z,67.90
2024-01-15T13:10:31.526Z,67.90
2024-01-15T13:12:58.511Z,68.00
2024-01-15T13:15:25.698Z,68.00
2024-01-15T13:17:52.621Z,68.00
2024-01-15T13:20:19.775Z,67.90
2024-01-15T13:22:47.124Z,67.90
2024-01-15T13:25:13.998Z,67.90
2024-01-15T13:27:41.915Z,67.80
2024-01-15T13:30:11.647Z,67.70
2024-01-15T13:32:38.687Z,67.70
2024-01-15T13:35:08.314Z,67.60
2024-01-15T13:37:36.009Z,67.70
2024-01-15T13:40:04.805Z,67.60
2024-01-15T13:42:31.839Z,67.60
2024-01-15T13:44:59.475Z,67.60
2024-01-15T13:47:26.378Z,67.50
2024-01-15T13:49:53.278Z,67.50
2024-01-15T13:52:20.222Z,67.40
2024-01-15T13:54:50.397Z,67.30
2024-01-15T13:57:19.555Z,67.10
2024-01-15T13:59:47.561Z,67.00
2024-01-15T14:02:18.079Z,66.90
2024-01-15T14:04:48.880Z,66.90
2024-01-15T14:07:16.995Z,66.90
2024-01-15T14:09:44.459Z,66.90
2024-01-15T14:12:11.544Z,66.90
2024-01-15T14:14:38.524Z,66.80
2024-01-15T14:17:05.521Z,66.90
2024-01-15T14:19:32.533Z,66.90
2024-01-15T14:21:59.588Z,66.90
2024-01-15T14:24:26.588Z,67.10
2024-01-15T14:26:53.563Z,67.10
2024-01-15T14:29:21.989Z,67.30
2024-01-15T14:31:48.965Z,67.40
2024-01-15T14:34:16.673Z,67.50
2024-01-15T14:36:43.715Z,67.60
2024-01-15T14:39:10.939Z,67.80
2024-01-15T14:41:37.994Z,67.90
2024-01-15T14:44:05.112Z,68.00
2024-01-15T14:46:31.934Z,68.10
2024-01-15T14:48:58.894Z,68.20
2024-01-15T14:51:26.205Z,68.20
2024-01-15T14:53:53.001Z,68.30
2024-01-15T14:56:19.843Z,68.30
2024-01-15T14:58:49.734Z,68.30
2024-01-15T15:01:16.872Z,68.20
2024-01-15T15:03:45.447Z,68.20
2024-01-15T15:06:13.773Z,68.30
2024-01-15T15:08:41.582Z,68.40
2024-01-15T15:11:08.708Z,68.50
2024-01-15T15:13:42.514Z,68.60
2024-01-15T15:16:14.554Z,68.70
2024-01-15T15:18:44.825Z,68.70
2024-01-15T15:21:13.036Z,68.70
2024-01-15T15:23:40.407Z,69.30
2024-01-15T15:26:07.448Z,68.90
2024-01-15T15:28:38.042Z,68.70
2024-01-15T15:31:14.570Z,68.60
2024-01-15T15:33:41.737Z,68.60
2024-01-15T15:36:08.820Z,68.60
2024-01-15T15:38:36.008Z,68.60
2024-01-15T15:41:04.323Z,68.60
2024-01-15T15:43:31.395Z,68.70
2024-01-15T15:46:01.515Z,68.80
2024-01-15T15:48:29.002Z,68.80
2024-01-15T15:50:58.008Z,68.80
2024-01-15T15:53:29.329Z,68.80
2024-01-15T15:59:25.643Z,68.60
2024-01-15T16:01:53.263Z,68.60
2024-01-15T16:04:20.305Z,68.60
2024-01-15T16:06:51.451Z,68.60
2024-01-15T16:09:18.549Z,68.60
2024-01-15T16:11:53.210Z,68.60
2024-01-15T16:14:22.632Z,68.70
2024-01-15T16:23:12.833Z,68.70
2024-01-15T16:23:26.401Z,68.70
2024-01-15T16:23:41.808Z,68.70
2024-01-15T16:25:16.007Z,68.80
2024-01-15T16:27:45.691Z,68.70
2024-01-15T16:30:21.165Z,68.70
2024-01-15T16:32:59.234Z,68.80
2024-01-15T16:35:29.709Z,68.80
2024-01-15T16:37:56.787Z,68.80
2024-01-15T16:40:24.001Z,68.80
2024-01-15T16:42:50.992Z,68.80
2024-01-15T16:45:17.882Z,68.80
2024-01-15T16:47:45.200Z,68.70
2024-01-15T16:50:12.387Z,68.70
2024-01-15T16:52:41.921Z,68.70
2024-01-15T16:55:09.132Z,68.70
2024-01-15T16:57:36.024Z,68.80
2024-01-15T17:00:03.070Z,68.80
2024-01-15T17:02:30.260Z,68.80
2024-01-15T17:04:57.214Z,68.90
2024-01-15T17:07:24.187Z,69.00
2024-01-15T17:09:51.095Z,69.70
2024-01-15T17:12:48.938Z,69.80
2024-01-15T17:15:15.837Z,69.40
2024-01-15T17:17:45.878Z,68.90
2024-01-15T17:20:13.501Z,68.70
2024-01-15T17:22:40.560Z,68.50
2024-01-15T17:25:07.862Z,68.20
2024-01-15T17:27:34.864Z,68.10
2024-01-15T17:30:02.014Z,67.90
2024-01-15T17:32:29.066Z,67.80
2024-01-15T17:34:56.063Z,67.80
2024-01-15T17:37:22.959Z,67.70
2024-01-15T17:39:49.886Z,67.60
2024-01-15T17:42:17.127Z,67.50
2024-01-15T17:44:44.045Z,67.40
2024-01-15T17:47:11.470Z,67.40
2024-01-15T17:49:38.870Z,67.40
2024-01-15T17:52:06.256Z,67.50
2024-01-15T17:54:33.612Z,67.60
2024-01-15T17:57:00.413Z,67.60
2024-01-15T17:59:27.221Z,67.60
2024-01-15T18:01:55.661Z,67.60
2024-01-15T18:04:23.861Z,67.60
2024-01-15T18:06:51.565Z,67.70
2024-01-15T18:09:45.403Z,67.60
2024-01-15T18:13:06.735Z,67.70
2024-01-15T18:50:27.920Z,67.60
2024-01-15T19:04:13.681Z,67.80
2024-01-15T19:06:42.871Z,67.80
2024-01-15T19:09:11.605Z,67.80
2024-01-15T19:11:38.765Z,67.80
2024-01-15T19:14:07.140Z,67.80
2024-01-15T19:16:34.394Z,67.80
2024-01-15T19:19:01.532Z,67.80
2024-01-15T19:21:28.516Z,67.80
2024-01-15T19:23:55.322Z,67.80
2024-01-15T19:26:22.553Z,67.80
2024-01-15T19:28:51.208Z,67.70
2024-01-15T19:31:20.482Z,67.70
2024-01-15T19:33:47.710Z,67.70
2024-01-15T19:36:25.691Z,67.70
2024-01-15T19:38:54.184Z,67.70
2024-01-15T19:41:22.744Z,67.70
2024-01-15T19:43:49.841Z,67.60
2024-01-15T19:46:17.086Z,67.60
2024-01-15T19:48:44.194Z,67.60
2024-01-15T19:51:13.718Z,67.60
2024-01-15T19:53:42.434Z,67.60
2024-01-15T19:56:09.359Z,67.60
2024-01-15T19:58:38.333Z,67.60
2024-01-15T20:01:06.263Z,67.60
2024-01-15T20:03:33.616Z,67.60
2024-01-15T20:06:01.360Z,67.50
2024-01-15T20:08:28.777Z,67.60
2024-01-15T20:10:57.314Z,67.50
2024-01-15T20:13:24.322Z,67.60
2024-01-15T20:15:51.321Z,67.60
2024-01-15T20:18:19.110Z,67.50
2024-01-15T20:20:46.469Z,67.60
2024-01-15T20:32:20.688Z,67.60
2024-01-15T20:54:36.758Z,67.40
2024-01-15T20:57:05.295Z,67.40
2024-01-15T20:59:31.950Z,67.40
2024-01-15T21:01:58.642Z,67.40
2024-01-15T21:04:25.309Z,67.40
2024-01-15T21:06:52.577Z,67.40
2024-01-15T21:09:19.251Z,67.40
2024-01-15T21:11:45.964Z,67.40
2024-01-15T21:14:19.160Z,67.50
2024-01-15T21:16:47.739Z,67.50
2024-01-15T21:19:14.496Z,67.50
2024-01-15T21:21:41.246Z,67.50
2024-01-15T21:24:09.207Z,67.40
2024-01-15T21:26:36.141Z,67.40
2024-01-15T21:29:03.099Z,67.40
2024-01-15T21:31:29.729Z,67.40
2024-01-15T21:33:57.708Z,67.40
2024-01-15T21:36:24.384Z,67.40
2024-01-15T21:38:51.052Z,67.30
2024-01-15T21:41:17.722Z,67.30
2024-01-15T21:43:44.335Z,67.20
2024-01-15T21:46:10.968Z,67.20
2024-01-15T21:48:41.268Z,67.10
2024-01-15T21:51:09.054Z,67.00
2024-01-15T21:53:36.499Z,67.00
2024-01-15T21:56:03.265Z,67.00
2024-01-15T21:58:30.146Z,67.00
2024-01-15T22:00:56.743Z,67.00
2024-01-15T22:03:23.431Z,67.00
2024-01-15T22:05:52.377Z,67.10
2024-01-15T22:08:19.909Z,67.20
2024-01-15T22:10:46.483Z,67.20
2024-01-15T22:13:13.136Z,67.30
2024-01-15T22:15:39.819Z,67.20
2024-01-15T22:18:06.737Z,67.20
2024-01-15T22:20:33.488Z,67.00
2024-01-15T22:23:00.476Z,66.90
2024-01-15T22:25:27.803Z,66.90
2024-01-15T22:27:54.391Z,66.80
2024-01-15T22:30:21.013Z,66.90
2024-01-15T22:32:47.780Z,66.90
2024-01-15T22:35:14.594Z,66.90
2024-01-15T22:37:41.954Z,67.00
2024-01-15T22:40:13.936Z,67.00
2024-01-15T22:42:40.584Z,67.00
2024-01-15T22:45:07.649Z,67.00
2024-01-15T22:47:34.477Z,67.00
2024-01-15T22:50:01.366Z,67.10
2024-01-15T22:52:27.968Z,67.10
2024-01-15T22:54:55.554Z,67.20
2024-01-15T22:57:24.644Z,67.20
2024-01-15T22:59:51.344Z,67.30
2024-01-15T23:02:19.023Z,67.30
2024-01-15T23:04:45.897Z,67.30
2024-01-15T23:07:12.656Z,67.20
2024-01-15T23:09:39.307Z,67.20
2024-01-15T23:12:08.232Z,67.20
2024-01-15T23:14:37.657Z,67.20
2024-01-15T23:17:04.469Z,67.20
2024-01-15T23:19:31.165Z,67.20
2024-01-15T23:21:57.792Z,67.10
2024-01-15T23:24:24.448Z,67.10
2024-01-15T23:26:51.094Z,67.10
2024-01-15T23:29:18.417Z,67.10
2024-01-15T23:31:45.134Z,67.10
2024-01-15T23:34:12.326Z,67.00
2024-01-15T23:36:39.024Z,67.00
2024-01-15T23:39:08.772Z,67.00
2024-01-15T23:41:37.062Z,66.90
2024-01-15T23:44:05.321Z,66.90
2024-01-15T23:46:32.606Z,66.90
2024-01-15T23:48:59.698Z,66.80
2024-01-15T23:51:26.340Z,66.80
2024-01-15T23:53:53.005Z,66.80
2024-01-15T23:56:19.718Z,66.70
2024-01-15T23:58:46.418Z,66.70
